Time;durP1;ratioP1;P1;durP2;ratioP2;P2;SDS_P1;SDS_P2;PMS_P1;PMS_P2;Temp;Humidity;BMP_temperature;BMP_pressure;BME280_temperature;BME280_humidity;BME280_pressure;Samples;Min_cycle;Max_cycle;Signal;HPM_P1;HPM_P2
2023/11/14 00:01:50;;;;;;;14.20;6.97;;;16.60;75.20;;;;;;6098580;29;20710;-74
2023/11/14 00:04:53;;;;;;;14.35;7.30;;;16.50;75.20;;;;;;6099573;29;20055;-73
2023/11/14 00:07:55;;;;;;;12.32;6.90;;;16.60;75.20;;;;;;6082759;29;20098;-73
2023/11/14 00:10:57;;;;;;;17.15;7.60;;;16.60;75.20;;;;;;6082620;29;20044;-73
2023/11/14 00:13:58;;;;;;;12.75;7.47;;;16.60;75.00;;;;;;6082746;29;20478;-73
2023/11/14 00:16:59;;;;;;;12.48;7.15;;;16.60;75.00;;;;;;6082943;29;20123;-73
2023/11/14 00:20:06;;;;;;;13.73;6.90;;;16.60;75.00;;;;;;6084965;29;20060;-72
2023/11/14 00:23:08;;;;;;;12.77;6.53;;;16.50;75.10;;;;;;6085074;29;20028;-73
2023/11/14 00:26:12;;;;;;;19.02;8.43;;;16.60;75.10;;;;;;6103857;29;20107;-73
2023/11/14 00:29:16;;;;;;;15.10;7.25;;;16.50;75.00;;;;;;6091732;29;20063;-73
2023/11/14 00:32:17;;;;;;;14.73;7.55;;;16.50;75.00;;;;;;6100031;29;20043;-73
2023/11/14 00:35:23;;;;;;;14.25;7.40;;;16.40;75.10;;;;;;6100225;29;20040;-74
2023/11/14 00:38:27;;;;;;;15.57;7.20;;;16.40;75.30;;;;;;6082470;29;20335;-74
2023/11/14 00:41:28;;;;;;;13.30;7.68;;;16.40;75.40;;;;;;6099044;29;20159;-74
2023/11/14 00:44:31;;;;;;;13.70;7.82;;;16.40;75.40;;;;;;6082254;29;20032;-73
2023/11/14 00:47:36;;;;;;;15.05;6.72;;;16.40;75.50;;;;;;6094530;29;20539;-72
2023/11/14 00:50:39;;;;;;;13.60;7.38;;;16.40;75.40;;;;;;6113449;29;20036;-73
2023/11/14 00:53:41;;;;;;;16.85;6.93;;;16.50;75.50;;;;;;6099260;29;20159;-73
2023/11/14 00:56:44;;;;;;;15.43;6.95;;;16.40;75.50;;;;;;6095843;29;20171;-73
2023/11/14 00:59:46;;;;;;;17.38;7.85;;;16.40;75.60;;;;;;6097122;29;20035;-72
2023/11/14 01:02:53;;;;;;;15.45;7.40;;;16.50;75.60;;;;;;6097485;29;20080;-72
2023/11/14 01:06:19;;;;;;;18.83;7.45;;;16.60;76.30;;;;;;6113334;29;20124;-74
2023/11/14 01:09:22;;;;;;;15.77;7.18;;;16.50;75.40;;;;;;6097122;29;20035;-73
2023/11/14 01:12:25;;;;;;;13.48;7.15;;;16.50;75.40;;;;;;6112860;29;20040;-73
2023/11/14 01:15:30;;;;;;;12.88;7.20;;;16.50;75.50;;;;;;6097064;29;20032;-73
2023/11/14 01:18:32;;;;;;;14.73;7.47;;;16.60;75.50;;;;;;6098197;29;20055;-74
2023/11/14 01:21:36;;;;;;;14.85;6.50;;;16.50;75.60;;;;;;6096681;29;20124;-73
2023/11/14 01:24:39;;;;;;;12.55;6.53;;;16.60;75.70;;;;;;6112575;29;20043;-73
2023/11/14 01:27:42;;;;;;;16.13;7.13;;;16.60;75.60;;;;;;6112815;29;20031;-72
2023/11/14 01:30:46;;;;;;;15.60;7.65;;;16.60;75.60;;;;;;6097381;29;20039;-72
2023/11/14 01:33:49;;;;;;;12.90;7.38;;;16.60;75.50;;;;;;6098178;29;20048;-74
2023/11/14 01:37:00;;;;;;;16.90;8.13;;;16.50;75.40;;;;;;6097807;29;20462;-73
2023/11/14 01:40:04;;;;;;;14.85;7.72;;;16.50;75.60;;;;;;6096454;29;20433;-74
2023/11/14 01:43:06;;;;;;;10.07;6.35;;;16.50;75.80;;;;;;6096320;29;20426;-73
2023/11/14 01:46:19;;;;;;;10.80;6.32;;;16.50;76.00;;;;;;6101720;29;20048;-73
2023/11/14 01:49:25;;;;;;;16.90;6.47;;;16.50;76.20;;;;;;6073663;29;20124;-74
2023/11/14 01:52:27;;;;;;;11.90;6.82;;;16.50;76.20;;;;;;6073718;29;20036;-73
2023/11/14 01:55:33;;;;;;;15.80;6.65;;;16.50;76.20;;;;;;6057252;29;20044;-74
2023/11/14 01:58:36;;;;;;;10.75;6.00;;;16.60;76.10;;;;;;6056952;29;20043;-73
2023/11/14 02:01:39;;;;;;;11.00;6.55;;;16.60;76.10;;;;;;6072500;29;20131;-73
2023/11/14 02:04:41;;;;;;;13.57;6.07;;;16.60;76.20;;;;;;6056439;29;20143;-74
2023/11/14 02:07:44;;;;;;;11.80;6.93;;;16.60;76.20;;;;;;6056785;29;20043;-73
2023/11/14 02:10:46;;;;;;;12.55;6.95;;;16.60;76.10;;;;;;6073139;29;20398;-75
2023/11/14 02:13:49;;;;;;;14.25;6.47;;;16.60;76.10;;;;;;6068148;29;20199;-73
2023/11/14 02:16:55;;;;;;;14.52;6.00;;;16.70;76.00;;;;;;6073290;29;20032;-73
2023/11/14 02:19:56;;;;;;;12.50;5.75;;;16.70;76.00;;;;;;6043140;29;20550;-73
2023/11/14 02:23:01;;;;;;;13.50;6.18;;;16.70;75.60;;;;;;6080108;29;20051;-73
2023/11/14 02:26:04;;;;;;;11.48;5.88;;;16.70;75.70;;;;;;6102186;29;20096;-73
2023/11/14 02:29:05;;;;;;;14.68;6.97;;;16.70;75.80;;;;;;6069737;29;20040;-72
2023/11/14 02:32:06;;;;;;;13.55;6.38;;;16.70;75.80;;;;;;6101859;29;20036;-74
2023/11/14 02:35:10;;;;;;;10.45;6.05;;;16.70;75.80;;;;;;6101677;29;20442;-74
2023/11/14 02:38:14;;;;;;;13.80;6.13;;;16.70;75.50;;;;;;6101642;29;20028;-73
2023/11/14 02:41:17;;;;;;;11.23;5.88;;;16.70;75.30;;;;;;6101399;29;20043;-73
2023/11/14 02:44:18;;;;;;;12.65;6.20;;;16.70;75.40;;;;;;6102048;29;20033;-74
2023/11/14 02:47:21;;;;;;;15.02;6.32;;;16.70;75.50;;;;;;6101808;29;20091;-73
2023/11/14 02:50:57;;;;;;;12.48;6.13;;;16.70;75.60;;;;;;6115647;29;20398;-73
2023/11/14 02:54:00;;;;;;;10.60;5.68;;;16.70;75.70;;;;;;6099741;29;20063;-72
2023/11/14 02:57:11;;;;;;;15.00;7.20;;;16.70;75.50;;;;;;6115728;29;20036;-74
2023/11/14 03:00:16;;;;;;;14.90;6.55;;;16.80;75.60;;;;;;6101337;29;20126;-73
2023/11/14 03:03:28;;;;;;;11.52;5.97;;;16.80;75.50;;;;;;6099814;29;20208;-74
2023/11/14 03:06:31;;;;;;;12.98;6.25;;;16.90;75.50;;;;;;6100204;29;20044;-74
2023/11/14 03:09:48;;;;;;;16.75;5.65;;;16.90;75.30;;;;;;6115103;29;20151;-73
2023/11/14 03:12:53;;;;;;;13.65;5.88;;;16.90;75.30;;;;;;6100783;29;20046;-74
2023/11/14 03:15:58;;;;;;;12.98;6.43;;;17.00;75.30;;;;;;6100708;29;20091;-73
2023/11/14 03:19:00;;;;;;;14.07;6.70;;;17.00;75.30;;;;;;6100701;29;20436;-73
2023/11/14 03:22:02;;;;;;;10.73;5.65;;;17.00;75.30;;;;;;6098978;29;20411;-73
2023/11/14 03:25:09;;;;;;;12.50;5.10;;;17.10;75.40;;;;;;6099711;29;20183;-73
2023/11/14 03:28:10;;;;;;;14.77;5.70;;;17.10;75.30;;;;;;6100424;29;20358;-74
2023/11/14 03:31:22;;;;;;;8.40;5.18;;;17.10;75.30;;;;;;6100504;29;20028;-72
2023/11/14 03:34:23;;;;;;;9.75;5.13;;;17.00;75.10;;;;;;6083624;29;20711;-73
2023/11/14 03:37:26;;;;;;;10.38;5.78;;;17.20;75.20;;;;;;6099949;29;20222;-74
2023/11/14 03:40:28;;;;;;;10.90;5.85;;;17.10;75.10;;;;;;6100316;29;20039;-74
2023/11/14 03:43:34;;;;;;;12.43;6.03;;;17.20;75.20;;;;;;6101319;29;20055;-72
2023/11/14 03:46:38;;;;;;;10.20;5.75;;;17.10;75.10;;;;;;6108638;29;20051;-72
2023/11/14 03:49:40;;;;;;;10.05;6.07;;;17.10;75.20;;;;;;6120906;29;20024;-73
2023/11/14 03:52:41;;;;;;;15.25;5.82;;;17.10;75.20;;;;;;6101217;29;20123;-73
2023/11/14 03:55:44;;;;;;;12.85;6.55;;;17.10;75.00;;;;;;6083430;29;20055;-72
2023/11/14 03:58:46;;;;;;;14.02;5.90;;;17.10;75.10;;;;;;6100148;29;20032;-75
2023/11/14 04:01:56;;;;;;;10.43;5.85;;;17.10;75.00;;;;;;6082579;29;20430;-73
2023/11/14 04:04:57;;;;;;;11.40;6.10;;;17.00;74.90;;;;;;6083111;29;20342;-72
2023/11/14 04:08:02;;;;;;;11.23;5.78;;;17.00;75.00;;;;;;6099810;29;20069;-77
2023/11/14 04:11:07;;;;;;;12.43;5.67;;;17.00;74.80;;;;;;6082905;29;20192;-73
2023/11/14 04:14:09;;;;;;;11.02;6.40;;;16.90;74.80;;;;;;6099870;29;20039;-74
2023/11/14 04:17:12;;;;;;;11.20;6.20;;;16.80;74.90;;;;;;6099635;29;20066;-74
2023/11/14 04:20:14;;;;;;;10.73;6.13;;;16.80;75.20;;;;;;6099371;29;20032;-73
2023/11/14 04:23:20;;;;;;;14.25;6.68;;;16.70;75.30;;;;;;6067701;29;20481;-74
2023/11/14 04:26:22;;;;;;;10.90;6.18;;;16.70;75.40;;;;;;6067329;29;20454;-73
2023/11/14 04:29:25;;;;;;;10.95;6.05;;;16.80;75.50;;;;;;6082762;29;20039;-73
2023/11/14 04:32:27;;;;;;;11.07;6.22;;;16.80;75.60;;;;;;6082150;29;20044;-74
2023/11/14 04:35:29;;;;;;;20.13;6.80;;;16.80;75.40;;;;;;6099135;29;20033;-73
2023/11/14 04:38:33;;;;;;;12.00;6.38;;;16.90;75.30;;;;;;6099634;29;20055;-74
2023/11/14 04:41:36;;;;;;;12.85;6.20;;;16.80;75.20;;;;;;6082571;29;20052;-73
2023/11/14 04:44:37;;;;;;;13.02;5.75;;;16.90;75.40;;;;;;6099338;29;20119;-72
2023/11/14 04:47:39;;;;;;;10.50;5.70;;;16.90;75.20;;;;;;6095594;29;20374;-73
2023/11/14 04:50:47;;;;;;;12.45;6.60;;;17.00;75.30;;;;;;6098807;29;20118;-71
2023/11/14 04:53:49;;;;;;;12.43;5.20;;;16.90;75.00;;;;;;6098156;29;20115;-73
2023/11/14 04:56:52;;;;;;;10.63;5.82;;;16.90;74.90;;;;;;6098457;29;20028;-73
2023/11/14 04:59:54;;;;;;;12.55;6.50;;;16.90;75.10;;;;;;6098275;29;20029;-74
2023/11/14 05:03:03;;;;;;;12.15;6.15;;;16.90;75.00;;;;;;6098977;29;20047;-73
2023/11/14 05:06:06;;;;;;;12.25;6.07;;;16.90;75.20;;;;;;6097202;29;20226;-72
2023/11/14 05:09:09;;;;;;;13.50;6.55;;;16.90;75.20;;;;;;6098509;29;20441;-74
2023/11/14 05:12:12;;;;;;;13.13;6.25;;;16.90;75.20;;;;;;6098425;29;20100;-73
2023/11/14 05:15:14;;;;;;;12.90;6.00;;;16.90;75.20;;;;;;6098241;29;20362;-73
2023/11/14 05:18:15;;;;;;;11.50;6.20;;;16.90;75.20;;;;;;6094123;29;20048;-73
2023/11/14 05:21:18;;;;;;;12.85;5.97;;;16.90;75.20;;;;;;6112666;29;20075;-74
2023/11/14 05:24:21;;;;;;;10.75;6.18;;;17.00;75.20;;;;;;6096906;29;20040;-73
2023/11/14 05:27:23;;;;;;;15.10;6.32;;;17.00;75.00;;;;;;6098497;29;20350;-73
2023/11/14 05:30:26;;;;;;;17.42;6.93;;;17.00;75.00;;;;;;6096902;29;20036;-72
2023/11/14 05:33:30;;;;;;;12.73;6.13;;;17.00;75.00;;;;;;6097929;29;20051;-73
2023/11/14 05:36:35;;;;;;;11.85;6.75;;;17.00;75.10;;;;;;6097764;29;20139;-73
2023/11/14 05:39:40;;;;;;;12.57;6.03;;;17.00;75.10;;;;;;6097514;29;20060;-73
2023/11/14 05:42:44;;;;;;;13.52;7.30;;;17.00;75.10;;;;;;6097281;29;20119;-72
2023/11/14 05:45:50;;;;;;;13.70;6.72;;;17.10;75.20;;;;;;6097430;29;20052;-73
2023/11/14 05:48:53;;;;;;;13.30;7.53;;;17.10;75.20;;;;;;6097698;29;20047;-73
2023/11/14 05:51:55;;;;;;;18.52;7.07;;;17.20;75.20;;;;;;6097067;29;20051;-72
2023/11/14 05:54:58;;;;;;;11.68;6.50;;;17.20;75.00;;;;;;6097034;29;20048;-71
2023/11/14 05:58:02;;;;;;;10.77;6.40;;;17.20;75.00;;;;;;6096825;29;20028;-73
2023/11/14 06:01:10;;;;;;;13.98;6.97;;;17.30;75.00;;;;;;6096977;29;20096;-74
2023/11/14 06:04:14;;;;;;;12.52;6.72;;;17.30;75.00;;;;;;6096754;29;20044;-74
2023/11/14 06:07:18;;;;;;;16.88;7.18;;;17.30;75.00;;;;;;6065023;29;20044;-72
2023/11/14 06:10:21;;;;;;;10.70;6.25;;;17.30;74.90;;;;;;6080323;29;20100;-74
2023/11/14 06:13:24;;;;;;;10.25;5.93;;;17.30;74.90;;;;;;6097970;29;20099;-74
2023/11/14 06:16:32;;;;;;;12.82;6.03;;;17.30;74.80;;;;;;6098006;29;20142;-73
2023/11/14 06:19:37;;;;;;;10.80;6.47;;;17.30;74.80;;;;;;6079209;29;20051;-73
2023/11/14 06:22:39;;;;;;;12.68;5.68;;;17.30;74.80;;;;;;6065741;29;20040;-73
2023/11/14 06:25:42;;;;;;;12.57;6.55;;;17.30;74.80;;;;;;6097350;29;20060;-73
2023/11/14 06:28:47;;;;;;;8.05;5.30;;;17.30;74.80;;;;;;6078467;29;20139;-72
2023/11/14 06:31:50;;;;;;;13.55;6.15;;;17.40;74.90;;;;;;6079354;29;20135;-73
2023/11/14 06:34:54;;;;;;;15.18;5.18;;;17.40;74.80;;;;;;6080143;29;20042;-74
2023/11/14 06:38:16;;;;;;;11.52;5.50;;;17.40;74.80;;;;;;6096948;29;20111;-73
2023/11/14 06:41:18;;;;;;;10.90;5.75;;;17.40;74.80;;;;;;6096703;29;20107;-74
2023/11/14 06:44:21;;;;;;;12.13;5.65;;;17.50;74.90;;;;;;6096811;29;20124;-73
2023/11/14 06:47:21;;;;;;;10.82;5.43;;;17.50;74.70;;;;;;6096994;29;20069;-73
2023/11/14 06:50:25;;;;;;;11.23;5.60;;;17.50;74.70;;;;;;6096408;29;20218;-75
2023/11/14 06:53:31;;;;;;;8.73;5.47;;;17.50;74.50;;;;;;6095923;29;20382;-74
2023/11/14 06:56:34;;;;;;;9.88;5.45;;;17.50;74.50;;;;;;6096843;29;20051;-72
2023/11/14 06:59:36;;;;;;;10.10;5.78;;;17.40;74.40;;;;;;6096785;29;20035;-73
2023/11/14 07:02:38;;;;;;;13.48;5.78;;;17.40;74.40;;;;;;6096806;29;20099;-74
2023/11/14 07:05:40;;;;;;;9.15;4.93;;;17.40;74.50;;;;;;6096781;29;20048;-74
2023/11/14 07:08:44;;;;;;;10.10;5.90;;;17.40;74.60;;;;;;6096660;29;20038;-73
2023/11/14 07:11:47;;;;;;;19.48;5.93;;;17.40;74.60;;;;;;6098951;29;20437;-74
2023/11/14 07:14:49;;;;;;;9.02;5.18;;;17.40;74.60;;;;;;6099359;29;20052;-74
2023/11/14 07:17:54;;;;;;;9.02;5.55;;;17.40;74.60;;;;;;6099733;29;20638;-74
2023/11/14 07:20:58;;;;;;;9.52;5.38;;;17.50;74.60;;;;;;6100766;29;20052;-74
2023/11/14 07:24:02;;;;;;;11.95;6.10;;;17.50;74.50;;;;;;6100804;29;20032;-74
2023/11/14 07:27:06;;;;;;;9.82;5.07;;;17.50;74.50;;;;;;6100971;29;20067;-72
2023/11/14 07:30:10;;;;;;;8.65;4.80;;;17.50;74.50;;;;;;6099430;29;20044;-73
2023/11/14 07:33:11;;;;;;;10.60;5.55;;;17.50;74.50;;;;;;6100962;29;20371;-73
2023/11/14 07:36:12;;;;;;;10.30;5.82;;;17.50;74.50;;;;;;6100560;29;20036;-73
2023/11/14 07:39:14;;;;;;;10.77;4.88;;;17.60;74.50;;;;;;6115393;29;20328;-73
2023/11/14 07:42:17;;;;;;;13.45;5.90;;;17.60;74.70;;;;;;6114400;29;20091;-73
2023/11/14 07:45:22;;;;;;;8.05;4.85;;;17.60;74.60;;;;;;6099254;29;20292;-73
2023/11/14 07:48:24;;;;;;;11.55;5.55;;;17.70;74.50;;;;;;6067906;29;20414;-73
2023/11/14 07:51:26;;;;;;;9.55;5.35;;;17.70;74.40;;;;;;6099872;29;20031;-75
2023/11/14 07:54:29;;;;;;;8.10;4.55;;;17.70;74.40;;;;;;6100080;29;20886;-73
2023/11/14 07:57:30;;;;;;;14.30;5.22;;;17.70;74.40;;;;;;6067933;29;20036;-73
2023/11/14 08:00:32;;;;;;;9.98;4.78;;;17.70;74.40;;;;;;6082598;29;20134;-73
2023/11/14 08:03:36;;;;;;;9.23;4.85;;;17.80;74.40;;;;;;6082628;29;20085;-74
2023/11/14 08:06:39;;;;;;;9.20;4.70;;;17.80;74.40;;;;;;6099606;29;20051;-72
2023/11/14 08:09:42;;;;;;;8.07;4.22;;;17.80;74.40;;;;;;6099255;29;20122;-73
2023/11/14 08:12:48;;;;;;;12.48;4.80;;;17.80;74.30;;;;;;6100012;29;20460;-72
2023/11/14 08:15:50;;;;;;;10.65;5.13;;;17.90;74.50;;;;;;6067171;29;20130;-75
2023/11/14 08:18:53;;;;;;;20.98;4.82;;;17.80;74.40;;;;;;6082518;29;20119;-73
2023/11/14 08:22:03;;;;;;;8.07;4.57;;;17.90;74.70;;;;;;6098465;29;20047;-73
2023/11/14 08:25:05;;;;;;;9.52;4.45;;;17.90;74.70;;;;;;6099493;29;20079;-73
2023/11/14 08:28:09;;;;;;;10.30;5.72;;;17.90;74.60;;;;;;6099332;29;20074;-74
2023/11/14 08:31:34;;;;;;;11.82;5.57;;;17.90;74.50;;;;;;6099369;29;20738;-74
2023/11/14 08:34:37;;;;;;;13.35;6.70;;;18.00;74.40;;;;;;6072264;29;20104;-73
2023/11/14 08:37:40;;;;;;;17.77;8.00;;;18.00;74.00;;;;;;6072413;29;20041;-73
2023/11/14 08:40:42;;;;;;;17.10;7.55;;;18.00;73.90;;;;;;6071482;29;20069;-73
2023/11/14 08:43:45;;;;;;;17.55;7.82;;;18.00;74.00;;;;;;6071687;29;20043;-73
2023/11/14 08:46:48;;;;;;;15.95;7.53;;;18.00;73.90;;;;;;6040418;29;20125;-73
2023/11/14 08:49:50;;;;;;;10.60;5.82;;;18.00;73.80;;;;;;6032728;29;20048;-77
2023/11/14 08:52:52;;;;;;;11.60;5.03;;;18.00;73.70;;;;;;6033061;29;20057;-74
2023/11/14 08:55:56;;;;;;;10.45;5.55;;;18.10;73.70;;;;;;6048665;29;20137;-75
2023/11/14 08:59:00;;;;;;;13.15;5.65;;;18.10;73.60;;;;;;6033108;29;20423;-74
2023/11/14 09:02:03;;;;;;;12.45;6.55;;;18.20;73.70;;;;;;6048826;29;20073;-73
2023/11/14 09:05:04;;;;;;;8.95;5.60;;;18.20;73.50;;;;;;6033303;29;20041;-73
2023/11/14 09:08:09;;;;;;;16.63;5.00;;;18.30;73.40;;;;;;6033284;29;20135;-73
2023/11/14 09:11:12;;;;;;;10.93;4.55;;;18.40;73.30;;;;;;6047838;29;20033;-74
2023/11/14 09:14:14;;;;;;;12.10;7.40;;;18.50;73.10;;;;;;6048480;29;20481;-75
2023/11/14 09:17:16;;;;;;;18.90;9.13;;;18.60;72.80;;;;;;6048083;29;20053;-74
2023/11/14 09:20:22;;;;;;;20.20;10.93;;;18.70;72.60;;;;;;6017200;29;20045;-74
2023/11/14 09:23:24;;;;;;;19.20;7.57;;;18.80;72.40;;;;;;6035206;29;20041;-73
2023/11/14 09:26:27;;;;;;;15.15;6.82;;;18.90;72.00;;;;;;6074136;29;20043;-74
2023/11/14 09:29:29;;;;;;;15.32;7.50;;;18.90;71.90;;;;;;6074128;29;20063;-74
2023/11/14 09:32:33;;;;;;;18.70;7.35;;;19.00;71.80;;;;;;6073756;29;20116;-74
2023/11/14 09:35:33;;;;;;;22.13;10.32;;;19.00;71.40;;;;;;6057793;29;20370;-73
2023/11/14 09:38:37;;;;;;;24.27;7.05;;;19.00;71.40;;;;;;6073867;29;20089;-74
2023/11/14 09:41:41;;;;;;;20.15;8.43;;;19.10;71.10;;;;;;6074065;29;20056;-73
2023/11/14 09:44:46;;;;;;;24.48;11.80;;;19.10;71.00;;;;;;6074328;29;20593;-74
2023/11/14 09:47:49;;;;;;;25.20;9.90;;;19.10;70.90;;;;;;6080423;29;20048;-74
2023/11/14 09:51:02;;;;;;;20.08;8.38;;;19.10;70.60;;;;;;6096884;29;20028;-74
2023/11/14 09:54:06;;;;;;;14.93;6.82;;;19.10;70.70;;;;;;6097246;29;20040;-73
2023/11/14 09:57:16;;;;;;;32.28;6.95;;;19.10;70.70;;;;;;6095827;29;20047;-72
2023/11/14 10:00:19;;;;;;;21.65;8.18;;;19.10;70.50;;;;;;6096994;29;20366;-73
2023/11/14 10:03:22;;;;;;;18.48;7.72;;;19.10;70.70;;;;;;6096953;29;20520;-74
2023/11/14 10:06:25;;;;;;;13.23;6.72;;;19.10;70.60;;;;;;6096501;29;20055;-74
2023/11/14 10:09:28;;;;;;;16.42;8.15;;;19.20;70.50;;;;;;6096475;29;20034;-73
2023/11/14 10:12:38;;;;;;;16.88;7.50;;;19.20;70.50;;;;;;6095862;29;20054;-74
2023/11/14 10:15:38;;;;;;;14.00;7.43;;;19.30;70.40;;;;;;6096760;29;20071;-74
2023/11/14 10:18:42;;;;;;;16.65;7.63;;;19.40;70.40;;;;;;6096900;29;20032;-73
2023/11/14 10:21:44;;;;;;;17.58;6.90;;;19.50;70.00;;;;;;6095262;29;20365;-73
2023/11/14 10:24:50;;;;;;;17.75;8.88;;;19.60;69.80;;;;;;6096789;29;20063;-73
2023/11/14 10:28:06;;;;;;;12.85;7.20;;;19.70;69.50;;;;;;6096500;29;20499;-74
2023/11/14 10:31:06;;;;;;;17.33;7.68;;;19.90;69.30;;;;;;6095007;29;20102;-73
2023/11/14 10:34:29;;;;;;;19.67;6.90;;;20.00;68.80;;;;;;6096229;29;20096;-73
2023/11/14 10:37:33;;;;;;;21.30;7.47;;;20.10;68.40;;;;;;6095039;29;20119;-75
2023/11/14 10:40:55;;;;;;;14.98;7.22;;;20.30;68.50;;;;;;6096307;29;20075;-73
2023/11/14 10:44:08;;;;;;;21.35;8.18;;;20.50;67.50;;;;;;6079301;29;20694;-74
2023/11/14 10:47:11;;;;;;;27.40;11.43;;;20.80;66.80;;;;;;6074582;29;20098;-74
2023/11/14 10:50:31;;;;;;;24.25;10.13;;;21.20;66.20;;;;;;6100981;29;20123;-73
2023/11/14 10:53:31;;;;;;;15.40;8.67;;;21.90;64.80;;;;;;6084710;29;20051;-74
2023/11/14 10:56:38;;;;;;;19.33;8.60;;;22.50;61.50;;;;;;6100839;29;20044;-76
2023/11/14 10:59:40;;;;;;;11.88;6.63;;;23.20;60.50;;;;;;6100954;29;20568;-74
2023/11/14 11:02:50;;;;;;;18.85;8.75;;;23.80;58.40;;;;;;6100488;29;20068;-74
2023/11/14 11:05:53;;;;;;;18.35;6.00;;;23.80;57.90;;;;;;6084461;29;20131;-74
2023/11/14 11:08:56;;;;;;;9.60;5.47;;;23.80;57.70;;;;;;6100385;29;20055;-74
2023/11/14 11:12:04;;;;;;;7.85;4.05;;;23.80;57.70;;;;;;6083924;29;20737;-74
2023/11/14 11:15:09;;;;;;;5.70;3.50;;;23.70;57.30;;;;;;6083748;29;20052;-74
2023/11/14 11:18:12;;;;;;;17.30;6.07;;;23.90;57.10;;;;;;6083790;29;20164;-73
2023/11/14 11:21:14;;;;;;;12.18;6.18;;;24.30;55.80;;;;;;6083566;29;20040;-73
2023/11/14 11:24:15;;;;;;;24.42;8.40;;;24.30;55.40;;;;;;6101262;29;20434;-74
2023/11/14 11:27:22;;;;;;;13.90;6.53;;;24.30;55.30;;;;;;6084240;29;20032;-73
2023/11/14 11:30:26;;;;;;;13.70;6.28;;;24.10;55.80;;;;;;6084122;29;20040;-74
2023/11/14 11:33:54;;;;;;;11.23;5.32;;;23.90;56.10;;;;;;6067518;29;20063;-74
2023/11/14 11:36:56;;;;;;;22.23;7.23;;;23.70;56.30;;;;;;6083709;29;20044;-73
2023/11/14 11:40:06;;;;;;;16.00;6.45;;;23.70;56.70;;;;;;6082827;29;20032;-74
2023/11/14 11:43:10;;;;;;;14.80;5.68;;;23.30;57.00;;;;;;6083227;29;20063;-75
2023/11/14 11:46:41;;;;;;;6.53;4.75;;;23.00;57.50;;;;;;6100072;29;20040;-73
2023/11/14 11:49:42;;;;;;;14.38;5.90;;;22.80;58.20;;;;;;6100527;29;20466;-74
2023/11/14 11:52:58;;;;;;;12.38;5.63;;;22.70;58.40;;;;;;6099871;29;20134;-73
2023/11/14 11:56:10;;;;;;;9.52;5.25;;;22.50;58.50;;;;;;6098435;29;20442;-74
2023/11/14 11:59:12;;;;;;;20.20;6.03;;;22.40;58.80;;;;;;6099805;29;20523;-74
2023/11/14 12:02:26;;;;;;;13.63;4.90;;;22.40;59.00;;;;;;6099861;29;20165;-74
2023/11/14 12:05:36;;;;;;;6.75;3.75;;;22.40;59.00;;;;;;6098461;29;20059;-74
2023/11/14 12:08:40;;;;;;;13.60;5.90;;;22.40;59.20;;;;;;6098938;29;20481;-75
2023/11/14 12:11:41;;;;;;;8.90;4.80;;;22.30;59.30;;;;;;6098579;29;20088;-74
2023/11/14 12:14:45;;;;;;;9.07;4.80;;;22.30;59.40;;;;;;6098367;29;20048;-74
2023/11/14 12:17:54;;;;;;;8.93;4.28;;;22.20;59.60;;;;;;6097323;29;20047;-74
2023/11/14 12:21:08;;;;;;;9.50;4.22;;;22.20;59.70;;;;;;6098374;29;20066;-73
2023/11/14 12:24:12;;;;;;;14.18;5.45;;;22.30;59.80;;;;;;6097913;29;20036;-73
2023/11/14 12:27:14;;;;;;;10.23;5.70;;;22.30;59.80;;;;;;6098818;29;20033;-74
2023/11/14 12:30:17;;;;;;;14.43;6.38;;;22.30;59.70;;;;;;6098553;29;20119;-73
2023/11/14 12:33:25;;;;;;;8.68;4.93;;;22.30;59.70;;;;;;6096781;29;20390;-74
2023/11/14 12:36:28;;;;;;;8.68;5.05;;;22.40;60.30;;;;;;6098998;29;20407;-74
2023/11/14 12:39:34;;;;;;;9.90;5.13;;;22.40;59.70;;;;;;6100240;29;20115;-74
2023/11/14 12:42:38;;;;;;;11.80;4.70;;;22.50;59.80;;;;;;6098235;29;20036;-73
2023/11/14 12:45:47;;;;;;;8.73;4.57;;;22.60;59.80;;;;;;6097914;29;20100;-73
2023/11/14 12:49:17;;;;;;;10.07;5.07;;;22.60;59.60;;;;;;6081314;29;20064;-74
2023/11/14 12:52:24;;;;;;;9.85;5.15;;;22.60;59.90;;;;;;6081082;29;20064;-73
2023/11/14 12:55:25;;;;;;;10.48;4.55;;;22.60;60.00;;;;;;6081254;29;20036;-74
2023/11/14 12:58:27;;;;;;;11.20;5.60;;;22.60;59.90;;;;;;6081388;29;20048;-74
2023/11/14 13:01:34;;;;;;;12.45;5.70;;;22.70;59.90;;;;;;6097782;29;20052;-73
2023/11/14 13:04:36;;;;;;;12.30;6.03;;;22.80;60.00;;;;;;6080596;29;20506;-74
2023/11/14 13:07:39;;;;;;;14.73;4.85;;;22.90;59.70;;;;;;6080106;29;20478;-74
2023/11/14 13:10:44;;;;;;;6.20;3.70;;;23.00;59.70;;;;;;6097543;29;20035;-75
2023/11/14 13:13:46;;;;;;;9.38;4.10;;;23.10;59.40;;;;;;6098750;29;20438;-73
2023/11/14 13:16:50;;;;;;;8.50;4.35;;;23.10;59.30;;;;;;6097988;29;20060;-75
2023/11/14 13:19:53;;;;;;;15.13;4.88;;;23.20;59.30;;;;;;6097323;29;20067;-74
2023/11/14 13:22:57;;;;;;;8.60;4.50;;;23.20;59.30;;;;;;6080033;29;20103;-73
2023/11/14 13:25:59;;;;;;;11.30;4.03;;;23.20;59.00;;;;;;6083098;29;20147;-73
2023/11/14 13:29:03;;;;;;;10.90;4.65;;;23.30;59.20;;;;;;6080205;29;20399;-74
2023/11/14 13:32:06;;;;;;;13.90;5.40;;;23.20;59.20;;;;;;6096792;29;20167;-73
2023/11/14 13:35:09;;;;;;;12.85;4.28;;;23.20;59.30;;;;;;6097635;29;20043;-74
2023/11/14 13:38:12;;;;;;;8.60;3.67;;;23.20;59.30;;;;;;6097463;29;20036;-73
2023/11/14 13:41:16;;;;;;;7.35;4.00;;;23.20;59.50;;;;;;6095747;29;20071;-74
2023/11/14 13:44:21;;;;;;;7.55;3.83;;;23.20;59.70;;;;;;6097466;29;20284;-74
2023/11/14 13:47:22;;;;;;;6.57;3.75;;;23.20;59.80;;;;;;6097140;29;20357;-73
2023/11/14 13:50:27;;;;;;;7.43;3.70;;;23.20;59.80;;;;;;6097573;29;20513;-74
2023/11/14 13:53:29;;;;;;;5.45;3.67;;;23.20;59.80;;;;;;6097798;29;20035;-74
2023/11/14 13:56:34;;;;;;;15.27;4.40;;;23.20;59.80;;;;;;6113223;29;20504;-74
2023/11/14 13:59:38;;;;;;;22.60;4.97;;;23.20;60.00;;;;;;6101820;29;20040;-74
2023/11/14 14:02:44;;;;;;;13.63;4.70;;;23.20;60.10;;;;;;6092808;29;20044;-73
2023/11/14 14:05:48;;;;;;;13.95;5.30;;;23.10;60.20;;;;;;6064835;29;20182;-74
2023/11/14 14:08:51;;;;;;;13.57;4.03;;;23.10;60.10;;;;;;6097309;29;20083;-74
2023/11/14 14:11:54;;;;;;;10.50;4.50;;;23.10;60.30;;;;;;6096686;29;20024;-74
2023/11/14 14:15:03;;;;;;;13.10;4.00;;;23.00;60.60;;;;;;6097078;29;20044;-74
2023/11/14 14:18:08;;;;;;;8.20;3.28;;;22.90;60.80;;;;;;6095758;29;20091;-75
2023/11/14 14:21:12;;;;;;;5.72;2.85;;;22.90;60.80;;;;;;6096234;29;20115;-74
2023/11/14 14:24:15;;;;;;;4.35;2.80;;;22.80;60.80;;;;;;6097350;29;20039;-74
2023/11/14 14:27:18;;;;;;;6.05;3.20;;;22.80;61.20;;;;;;6097210;29;20127;-74
2023/11/14 14:30:22;;;;;;;8.13;3.40;;;22.70;61.30;;;;;;6064001;29;20040;-73
2023/11/14 14:33:23;;;;;;;8.07;3.53;;;22.60;61.40;;;;;;6096413;29;20071;-74
2023/11/14 14:36:26;;;;;;;7.30;3.03;;;22.50;61.40;;;;;;6097101;29;20056;-74
2023/11/14 14:39:48;;;;;;;4.65;2.97;;;22.50;61.80;;;;;;6095812;29;20028;-74
2023/11/14 14:42:49;;;;;;;5.55;3.10;;;22.40;62.10;;;;;;6046861;29;20108;-74
2023/11/14 14:45:53;;;;;;;5.93;3.13;;;22.40;62.20;;;;;;6039793;29;20045;-73
2023/11/14 14:48:56;;;;;;;13.23;4.10;;;22.30;62.40;;;;;;6008384;29;20082;-75
2023/11/14 14:51:58;;;;;;;8.98;3.58;;;22.30;62.80;;;;;;6022524;29;20510;-74
2023/11/14 14:55:10;;;;;;;9.45;4.43;;;22.20;63.10;;;;;;6007357;29;20049;-73
2023/11/14 14:58:13;;;;;;;9.93;4.05;;;22.20;63.50;;;;;;6009152;29;20445;-73
2023/11/14 15:01:16;;;;;;;6.72;3.60;;;22.10;63.90;;;;;;6023171;29;20794;-74
2023/11/14 15:04:21;;;;;;;11.98;4.35;;;22.10;64.20;;;;;;6023297;29;20452;-75
2023/11/14 15:07:23;;;;;;;6.65;3.40;;;22.10;64.20;;;;;;6023288;29;20040;-74
2023/11/14 15:10:26;;;;;;;8.10;3.63;;;22.00;64.30;;;;;;6007687;29;20414;-74
2023/11/14 15:13:29;;;;;;;10.77;4.07;;;22.00;64.40;;;;;;6007920;29;20038;-74
2023/11/14 15:16:32;;;;;;;9.48;3.60;;;22.20;64.70;;;;;;6007490;29;20561;-74
2023/11/14 15:19:34;;;;;;;5.75;3.28;;;22.00;64.70;;;;;;6023537;29;20041;-74
2023/11/14 15:22:37;;;;;;;7.30;3.42;;;22.00;64.80;;;;;;6023316;29;20133;-74
2023/11/14 15:25:43;;;;;;;11.75;3.25;;;21.90;64.80;;;;;;6020112;29;20075;-73
2023/11/14 15:28:48;;;;;;;10.75;3.58;;;21.90;64.80;;;;;;6073493;29;20025;-74
2023/11/14 15:31:52;;;;;;;7.80;3.15;;;21.90;64.80;;;;;;6074855;29;20231;-74
2023/11/14 15:34:54;;;;;;;11.15;2.85;;;21.80;64.70;;;;;;6059867;29;20139;-74
2023/11/14 15:38:00;;;;;;;10.10;3.72;;;21.70;64.70;;;;;;6060015;29;20493;-73
2023/11/14 15:41:05;;;;;;;7.57;3.65;;;21.70;64.80;;;;;;6059545;29;20060;-75
2023/11/14 15:44:11;;;;;;;6.80;3.20;;;21.70;64.90;;;;;;6076790;29;20072;-74
2023/11/14 15:47:14;;;;;;;7.00;2.97;;;21.60;64.80;;;;;;6094361;29;20032;-73
2023/11/14 15:50:16;;;;;;;3.95;2.40;;;21.60;64.80;;;;;;6099328;29;20044;-73